»·PEaware :: DAL3293 KSFO-KDEN

DAL3293 :: KSFO-KDEN

FLIGHT INFORMATION

Flight Status: Arrived
Operator:
Delta Air Lines
More flights by this operator :: More flights under this callsign
Pilot: William Bernard (10095)
Aircraft: AIRBUS A320
(A320)
More flights by this aircraft type
Origin: KSFO San Francisco Intl
United States
Destination: KDEN Denver Intl
United States
More flights between these airports :: More routes between these airports
Route: +CIITY3 TIPRE Q126 EKR KAILE2
File this flight plan on PilotEdge
Remarks: First time in 6 months aerosoft a320 pfpx
Altitude:
(Current/Filed)
33,000ft
Speed:
(Current/Filed)
400kts
Departed: 08-Jan-17 10:14 AM
Arrived: 08-Jan-17 12:08 PM
Distance/Time
Traveled:
837nm/1:53
Distance/Time
To Go:
Arrived

Flight Plot

Page will automatically refresh every two minutes.

Flight plan parsing failed; only flown route is shown


Map Options




Map Legend


Flown Route
Filed Route
Departure Airport
Arrival Airport
Navaid (VOR, NDB)
Fix

Horizontal Profiles

Position Reports

Time Latitude Longitude Heading Altitude Ground
Speed
08-Jan-17 09:48 37.614034 -122.384632 254 27ft 0kts
08-Jan-17 09:49 37.614034 -122.384632 254 27ft 0kts
08-Jan-17 09:50 37.614034 -122.384632 254 27ft 0kts
08-Jan-17 09:51 37.614034 -122.384632 254 27ft 0kts
08-Jan-17 09:52 37.614034 -122.384632 254 27ft 0kts
08-Jan-17 09:53 37.614034 -122.384632 254 27ft 0kts
08-Jan-17 09:54 37.614034 -122.384632 254 27ft 0kts
08-Jan-17 09:55 37.614034 -122.384632 254 27ft 0kts
08-Jan-17 09:56 37.614034 -122.384632 254 27ft 0kts
08-Jan-17 09:57 37.614034 -122.384632 254 27ft 0kts
08-Jan-17 09:58 37.614034 -122.384632 254 27ft 0kts
08-Jan-17 09:59 37.614034 -122.384632 254 27ft 0kts
08-Jan-17 10:00 37.614034 -122.384632 254 27ft 0kts
08-Jan-17 10:01 37.614034 -122.384632 254 27ft 0kts
08-Jan-17 10:02 37.614034 -122.384632 254 27ft 0kts
08-Jan-17 10:03 37.614033 -122.384634 254 27ft 0kts
08-Jan-17 10:04 37.614033 -122.384636 254 27ft 0kts
08-Jan-17 10:05 37.614032 -122.384638 254 27ft 0kts
08-Jan-17 10:06 37.614032 -122.384641 254 27ft 0kts
08-Jan-17 10:07 37.614162 -122.384021 254 27ft 2kts
08-Jan-17 10:08 37.613965 -122.383457 116 27ft 0kts
08-Jan-17 10:09 37.613965 -122.383455 116 27ft 0kts
08-Jan-17 10:10 37.613964 -122.383453 116 27ft 0kts
08-Jan-17 10:11 37.613504 -122.381794 61 27ft 19kts
08-Jan-17 10:12 37.618270 -122.379651 323 27ft 30kts
08-Jan-17 10:13 37.621186 -122.383898 296 27ft 14kts
08-Jan-17 10:14 37.624953 -122.392914 308 27ft 42kts
08-Jan-17 10:15 37.625637 -122.393667 46 27ft 0kts
08-Jan-17 10:16 37.625651 -122.393649 46 27ft 3kts
08-Jan-17 10:17 37.619977 -122.378226 116 27ft 134kts
08-Jan-17 10:18 37.600009 -122.327471 129 1907ft 185kts
08-Jan-17 10:19 37.573309 -122.258200 126 4389ft 245kts
08-Jan-17 10:20 37.542154 -122.173440 120 8035ft 271kts
08-Jan-17 10:21 37.582795 -122.084643 42 10024ft 348kts
08-Jan-17 10:22 37.656707 -122.005719 43 10029ft 348kts
08-Jan-17 10:23 37.731624 -121.920371 44 11069ft 397kts
08-Jan-17 10:24 37.802247 -121.808038 60 13515ft 419kts
08-Jan-17 10:25 37.867320 -121.680849 59 15891ft 440kts
08-Jan-17 10:26 37.936398 -121.548985 58 18118ft 460kts
08-Jan-17 10:27 38.008529 -121.412847 57 19024ft 466kts
08-Jan-17 10:28 38.081143 -121.276394 57 20690ft 472kts
08-Jan-17 10:29 38.155226 -121.135109 57 22605ft 486kts
08-Jan-17 10:30 38.215531 -120.980768 79 24168ft 494kts
08-Jan-17 10:31 38.240383 -120.808717 84 25755ft 499kts
08-Jan-17 10:32 38.264221 -120.633369 84 26987ft 508kts
08-Jan-17 10:33 38.288650 -120.454922 84 28124ft 517kts
08-Jan-17 10:34 38.313628 -120.273528 84 29159ft 524kts
08-Jan-17 10:35 38.339104 -120.089357 84 30095ft 530kts
08-Jan-17 10:36 38.364131 -119.904530 83 31211ft 527kts
08-Jan-17 10:37 38.388768 -119.720613 83 32110ft 528kts
08-Jan-17 10:38 38.413517 -119.535632 83 32990ft 527kts
08-Jan-17 10:39 38.437902 -119.350958 83 33088ft 529kts
08-Jan-17 10:40 38.462027 -119.165995 83 33101ft 528kts
08-Jan-17 10:41 38.485733 -118.981193 83 33113ft 528kts
08-Jan-17 10:42 38.509157 -118.796174 82 33120ft 529kts
08-Jan-17 10:43 38.532420 -118.610356 82 33177ft 528kts
08-Jan-17 10:44 38.555279 -118.425315 82 33187ft 528kts
08-Jan-17 10:45 38.577873 -118.240161 82 33189ft 528kts
08-Jan-17 10:46 38.600233 -118.054874 83 33201ft 528kts
08-Jan-17 10:47 38.622122 -117.870061 83 33226ft 521kts
08-Jan-17 10:48 38.643425 -117.686970 83 33239ft 521kts
08-Jan-17 10:49 38.664596 -117.503781 83 33249ft 521kts
08-Jan-17 10:50 38.685402 -117.320415 83 33257ft 521kts
08-Jan-17 10:51 38.710616 -117.137784 79 33260ft 522kts
08-Jan-17 10:52 38.739668 -116.955613 78 33260ft 521kts
08-Jan-17 10:53 38.769572 -116.774179 78 33257ft 521kts
08-Jan-17 10:54 38.799792 -116.592723 78 33251ft 521kts
08-Jan-17 10:55 38.829818 -116.411132 78 33245ft 521kts
08-Jan-17 10:56 38.859909 -116.228872 78 33238ft 521kts
08-Jan-17 10:57 38.889791 -116.047117 78 33237ft 521kts
08-Jan-17 10:58 38.918863 -115.865690 78 33243ft 518kts
08-Jan-17 10:59 38.947885 -115.684652 78 33242ft 518kts
08-Jan-17 11:00 38.976876 -115.503592 78 33244ft 518kts
08-Jan-17 11:01 39.005330 -115.322446 78 33245ft 518kts
08-Jan-17 11:02 39.033694 -115.140484 78 33248ft 518kts
08-Jan-17 11:03 39.061557 -114.959322 78 33248ft 516kts
08-Jan-17 11:04 39.089120 -114.778218 78 33252ft 516kts
08-Jan-17 11:05 39.116552 -114.596410 78 33254ft 516kts
08-Jan-17 11:06 39.143557 -114.415013 78 33260ft 516kts
08-Jan-17 11:07 39.170363 -114.233561 78 33270ft 516kts
08-Jan-17 11:08 39.196778 -114.052050 78 33282ft 516kts
08-Jan-17 11:09 39.222683 -113.870232 78 33296ft 516kts
08-Jan-17 11:10 39.248693 -113.687828 77 33309ft 516kts
08-Jan-17 11:11 39.274301 -113.505929 77 33310ft 516kts
08-Jan-17 11:12 39.299641 -113.323992 78 33313ft 515kts
08-Jan-17 11:13 39.324818 -113.141997 77 33310ft 516kts
08-Jan-17 11:14 39.351999 -112.959718 76 33317ft 515kts
08-Jan-17 11:15 39.380586 -112.778658 75 33313ft 515kts
08-Jan-17 11:16 39.409789 -112.597504 75 33309ft 515kts
08-Jan-17 11:17 39.439155 -112.416347 74 33309ft 515kts
08-Jan-17 11:18 39.468517 -112.235004 74 33311ft 515kts
08-Jan-17 11:19 39.497866 -112.052758 74 33321ft 516kts
08-Jan-17 11:20 39.526637 -111.870914 74 33331ft 516kts
08-Jan-17 11:21 39.555385 -111.688888 74 33344ft 516kts
08-Jan-17 11:22 39.583884 -111.506868 74 33397ft 516kts
08-Jan-17 11:23 39.612003 -111.324166 74 33419ft 515kts
08-Jan-17 11:24 39.639753 -111.142209 74 33428ft 515kts
08-Jan-17 11:25 39.667191 -110.960217 74 33455ft 514kts
08-Jan-17 11:26 39.694339 -110.778068 74 33465ft 514kts
08-Jan-17 11:27 39.721222 -110.595845 74 33466ft 515kts
08-Jan-17 11:28 39.747924 -110.413315 74 33462ft 515kts
08-Jan-17 11:29 39.774427 -110.229952 74 33460ft 517kts
08-Jan-17 11:30 39.800666 -110.046567 74 33458ft 516kts
08-Jan-17 11:31 39.824091 -109.880915 74 33464ft 516kts
08-Jan-17 11:32 39.849719 -109.697449 75 33463ft 516kts
08-Jan-17 11:33 39.874944 -109.513435 75 33474ft 515kts
08-Jan-17 11:34 39.899854 -109.329980 75 33471ft 515kts
08-Jan-17 11:35 39.924401 -109.146567 74 33465ft 514kts
08-Jan-17 11:36 39.948634 -108.963644 74 33457ft 512kts
08-Jan-17 11:37 39.972528 -108.780132 74 33452ft 512kts
08-Jan-17 11:38 39.996213 -108.597534 74 33448ft 511kts
08-Jan-17 11:39 40.019555 -108.414848 74 33443ft 511kts
08-Jan-17 11:40 40.042727 -108.232128 74 33427ft 510kts
08-Jan-17 11:41 40.065542 -108.049682 74 33396ft 510kts
08-Jan-17 11:42 40.089145 -107.865010 71 33390ft 522kts
08-Jan-17 11:43 40.121241 -107.681512 67 33388ft 519kts
08-Jan-17 11:44 40.157309 -107.498678 67 33384ft 517kts
08-Jan-17 11:45 40.193343 -107.317290 67 33377ft 516kts
08-Jan-17 11:46 40.229294 -107.135303 67 33372ft 515kts
08-Jan-17 11:47 40.264781 -106.954300 67 33370ft 514kts
08-Jan-17 11:48 40.299958 -106.773618 67 33368ft 512kts
08-Jan-17 11:49 40.334841 -106.593026 67 33367ft 511kts
08-Jan-17 11:50 40.369401 -106.412100 67 33366ft 510kts
08-Jan-17 11:51 40.404131 -106.231164 67 30954ft 513kts
08-Jan-17 11:52 40.437758 -106.052457 72 28510ft 498kts
08-Jan-17 11:53 40.431248 -105.874506 98 25126ft 477kts
08-Jan-17 11:54 40.404482 -105.717684 99 23216ft 415kts
08-Jan-17 11:55 40.379566 -105.572166 99 21185ft 403kts
08-Jan-17 11:56 40.355867 -105.425941 99 19181ft 399kts
08-Jan-17 11:57 40.339487 -105.309262 97 17020ft 382kts
08-Jan-17 11:58 40.321398 -105.178156 97 14444ft 356kts
08-Jan-17 11:59 40.304199 -105.054569 97 13129ft 313kts
08-Jan-17 12:00 40.286640 -104.928755 97 12762ft 300kts
08-Jan-17 12:01 40.273676 -104.840087 97 11693ft 294kts
08-Jan-17 12:02 40.225217 -104.751488 172 10544ft 267kts
08-Jan-17 12:03 40.166005 -104.732259 169 10002ft 261kts
08-Jan-17 12:04 40.096618 -104.707298 169 9989ft 256kts
08-Jan-17 12:05 40.015831 -104.685765 183 9122ft 253kts
08-Jan-17 12:06 39.949342 -104.686206 181 6505ft 213kts
08-Jan-17 12:07 39.909606 -104.686870 180 5720ft 153kts
08-Jan-17 12:08 39.878198 -104.686827 161 5339ft 25kts

Navigation Log

Ident Type Via Name
Flight plan parsing failed, navigation log unavailable